Time;durP1;ratioP1;P1;durP2;ratioP2;P2;SDS_P1;SDS_P2;PMS_P1;PMS_P2;Temp;Humidity;BMP_temperature;BMP_pressure;BME280_temperature;BME280_humidity;BME280_pressure;Samples;Min_cycle;Max_cycle;Signal;HPM_P1;HPM_P2
2022/10/24 00:00:00;;;;;;;21.00;16.10;;;;;;;12.25;76.96;100240.30;108559;1279;22654;-81
2022/10/24 00:03:06;;;;;;;17.90;14.40;;;;;;;12.27;76.92;100240.23;108226;1285;23081;-81
2022/10/24 00:05:35;;;;;;;19.40;15.30;;;;;;;12.30;76.89;100242.16;107916;1283;21967;-81
2022/10/24 00:08:48;;;;;;;18.60;15.70;;;;;;;12.31;76.90;100245.61;108134;1283;21949;-81
2022/10/24 00:11:26;;;;;;;17.70;15.80;;;;;;;12.36;76.87;100253.92;108328;1283;23058;-81
2022/10/24 00:14:08;;;;;;;20.20;16.60;;;;;;;12.42;76.79;100256.98;108120;1283;23087;-82
2022/10/24 00:16:44;;;;;;;19.60;16.40;;;;;;;12.46;76.63;100248.75;107933;1290;21951;-80
2022/10/24 00:19:38;;;;;;;20.90;15.20;;;;;;;12.50;76.51;100248.55;107595;1290;21965;-81
2022/10/24 00:22:23;;;;;;;18.60;16.50;;;;;;;12.52;76.42;100252.50;107972;1285;21958;-82
2022/10/24 00:25:08;;;;;;;18.30;15.50;;;;;;;12.56;76.41;100252.98;108393;1282;21961;-81
2022/10/24 00:27:52;;;;;;;18.70;15.00;;;;;;;12.60;76.18;100255.96;108359;1283;22656;-81
2022/10/24 00:30:38;;;;;;;18.60;15.20;;;;;;;12.63;76.14;100258.80;108268;1282;22002;-82
2022/10/24 00:33:19;;;;;;;15.30;13.70;;;;;;;12.65;75.99;100260.59;108343;1283;21947;-80
2022/10/24 00:36:01;;;;;;;17.50;15.10;;;;;;;12.65;75.86;100258.84;108110;1286;21955;-81
2022/10/24 00:38:47;;;;;;;15.80;14.10;;;;;;;12.65;75.72;100254.32;108092;1286;23789;-81
2022/10/24 00:41:37;;;;;;;;;;;;;;;;;;;;;
2022/10/24 00:44:44;;;;;;;16.70;14.60;;;;;;;12.66;75.77;100255.84;108594;1280;23688;-81
2022/10/24 00:47:26;;;;;;;16.90;14.70;;;;;;;12.65;75.72;100263.76;108278;1283;21951;-83
2022/10/24 00:50:30;;;;;;;;;;;;;;;;;;;;;
2022/10/24 00:53:49;;;;;;;16.80;14.20;;;;;;;12.63;75.60;100248.83;107988;1288;21945;-80
2022/10/24 00:56:48;;;;;;;19.50;16.70;;;;;;;12.58;75.55;100238.42;108050;1287;21944;-82
2022/10/24 00:59:53;;;;;;;17.40;14.70;;;;;;;12.53;75.47;100234.46;106765;1286;1090711;-81
2022/10/24 01:02:28;;;;;;;31.30;14.40;;;;;;;12.53;75.61;100227.30;107947;1286;24387;-81
2022/10/24 01:05:22;;;;;;;22.80;15.50;;;;;;;12.52;75.50;100218.42;108255;1283;21930;-81
2022/10/24 01:09:08;;;;;;;18.00;16.00;;;;;;;12.48;75.50;100210.41;108475;1283;23798;-82
2022/10/24 01:12:49;;;;;;;17.40;15.60;;;;;;;12.35;75.61;100201.10;107764;1288;21948;-81
2022/10/24 01:15:56;;;;;;;18.90;16.40;;;;;;;12.28;75.73;100202.51;107863;1282;22378;-83
2022/10/24 01:19:11;;;;;;;;;;;;;;;;;;;;;
2022/10/24 01:22:10;;;;;;;30.50;17.00;;;;;;;12.26;75.97;100203.42;108374;1286;23677;-82
2022/10/24 01:25:37;;;;;;;20.00;16.00;;;;;;;12.29;76.03;100204.88;108120;1285;22206;-81
2022/10/24 01:28:39;;;;;;;18.60;16.40;;;;;;;12.32;76.07;100196.73;108393;1283;23608;-80
2022/10/24 01:32:13;;;;;;;17.40;15.00;;;;;;;12.27;75.94;100199.21;108285;1269;23746;-80
2022/10/24 01:35:22;;;;;;;17.70;15.80;;;;;;;12.25;75.97;100202.10;108371;1282;21943;-80
2022/10/24 01:38:13;;;;;;;16.10;14.50;;;;;;;12.23;76.03;100195.23;108614;1283;22084;-83
2022/10/24 01:41:30;;;;;;;16.90;15.40;;;;;;;12.20;76.04;100192.77;108575;1282;21953;-82
2022/10/24 01:44:52;;;;;;;;;;;;;;;;;;;;;
2022/10/24 01:47:51;;;;;;;18.80;16.30;;;;;;;12.18;76.14;100190.08;108686;1274;23573;-82
2022/10/24 01:50:58;;;;;;;20.00;17.30;;;;;;;12.18;76.09;100196.70;108898;1274;21939;-82
2022/10/24 01:53:48;;;;;;;22.30;17.90;;;;;;;12.17;76.20;100198.83;108896;1274;22260;-82
2022/10/24 01:56:55;;;;;;;21.20;18.90;;;;;;;12.16;76.14;100200.25;108567;1280;21937;-81
2022/10/24 01:59:28;;;;;;;22.30;18.60;;;;;;;12.16;76.10;100187.52;108500;1280;23655;-82
2022/10/24 02:02:54;;;;;;;19.80;17.80;;;;;;;12.16;76.18;100172.85;108678;1279;22714;-82
2022/10/24 02:05:50;;;;;;;18.10;16.00;;;;;;;12.16;76.26;100162.92;108565;1280;23848;-82
2022/10/24 02:08:57;;;;;;;18.10;16.30;;;;;;;12.20;76.36;100150.53;107952;1286;21971;-84
2022/10/24 02:12:19;;;;;;;19.80;16.80;;;;;;;12.20;76.34;100142.87;107965;1286;23598;-82
2022/10/24 02:15:34;;;;;;;20.70;18.50;;;;;;;12.17;76.19;100133.23;108195;1286;22996;-83
2022/10/24 02:18:25;;;;;;;;;;;;;;;;;;;;;
2022/10/24 02:21:41;;;;;;;17.90;16.20;;;;;;;12.08;76.37;100125.65;107725;1287;23736;-83
2022/10/24 02:24:49;;;;;;;;;;;;;;;;;;;;;
2022/10/24 02:27:50;;;;;;;21.00;16.20;;;;;;;12.02;76.66;100099.04;108199;1280;21948;-83
2022/10/24 02:31:44;;;;;;;19.80;17.80;;;;;;;12.02;76.77;100082.48;108719;1280;21948;-83
2022/10/24 02:34:18;;;;;;;22.80;16.50;;;;;;;12.01;76.91;100078.86;108621;1280;22009;-83
2022/10/24 02:37:13;;;;;;;18.30;15.90;;;;;;;12.04;76.93;100081.86;108820;1274;23738;-83
2022/10/24 02:40:33;;;;;;;;;;;;;;;;;;;;;
2022/10/24 02:43:53;;;;;;;20.10;17.70;;;;;;;12.13;77.10;100104.28;109074;1274;23739;-82
2022/10/24 02:46:39;;;;;;;18.90;17.00;;;;;;;12.17;77.05;100100.08;108884;1274;23854;-82
2022/10/24 02:49:23;;;;;;;18.20;15.90;;;;;;;12.19;76.89;100111.69;108782;1274;23060;-83
2022/10/24 02:52:23;;;;;;;20.10;18.20;;;;;;;12.23;76.99;100112.38;108799;1274;22977;-82
2022/10/24 02:55:19;;;;;;;;;;;;;;;;;;;;;
2022/10/24 02:58:19;;;;;;;20.60;18.60;;;;;;;12.23;76.88;100099.61;108691;1273;22358;-83
2022/10/24 03:01:14;;;;;;;20.40;18.30;;;;;;;12.23;76.89;100105.04;108693;1280;24331;-83
2022/10/24 03:04:00;;;;;;;;;;;;;;;;;;;;;
2022/10/24 03:06:41;;;;;;;19.80;17.90;;;;;;;12.31;76.97;100122.78;108518;1283;22412;-82
2022/10/24 03:09:41;;;;;;;;;;;;;;;;;;;;;
2022/10/24 03:12:23;;;;;;;20.70;18.70;;;;;;;12.42;77.00;100129.08;107984;1286;23670;-82
2022/10/24 03:15:08;;;;;;;22.00;19.70;;;;;;;12.48;76.95;100127.54;108255;1281;23063;-80
2022/10/24 03:17:47;;;;;;;25.70;22.90;;;;;;;12.53;76.79;100138.48;107556;1290;21949;-81
2022/10/24 03:20:26;;;;;;;25.80;23.40;;;;;;;12.56;76.73;100135.53;107541;1292;21953;-81
2022/10/24 03:23:12;;;;;;;;;;;;;;;;;;;;;
2022/10/24 03:26:07;;;;;;;26.00;23.60;;;;;;;12.63;76.66;100126.46;107951;1286;22333;-82
2022/10/24 03:28:47;;;;;;;24.70;22.50;;;;;;;12.66;76.69;100120.36;108323;1280;21939;-81
2022/10/24 03:31:29;;;;;;;24.50;22.40;;;;;;;12.71;76.62;100118.53;108378;1280;23823;-82
2022/10/24 03:34:10;;;;;;;23.60;21.50;;;;;;;12.76;76.50;100124.59;108510;1280;24279;-81
2022/10/24 03:37:03;;;;;;;22.40;20.00;;;;;;;12.81;76.42;100127.13;108746;1275;21933;-82
2022/10/24 03:39:46;;;;;;;22.50;20.40;;;;;;;12.83;76.33;100130.14;108755;1277;23059;-83
2022/10/24 03:42:19;;;;;;;19.70;17.70;;;;;;;12.86;76.09;100136.43;108082;1286;22145;-82
2022/10/24 03:44:55;;;;;;;19.90;16.30;;;;;;;12.87;76.06;100133.27;107686;1292;21952;-83
2022/10/24 03:47:40;;;;;;;20.30;18.40;;;;;;;12.91;76.19;100128.71;107687;1290;23032;-83
2022/10/24 03:50:44;;;;;;;;;;;;;;;;;;;;;
2022/10/24 03:53:33;;;;;;;18.20;16.00;;;;;;;12.95;76.01;100129.92;107725;1290;21951;-82
2022/10/24 03:56:16;;;;;;;20.60;18.10;;;;;;;12.94;75.85;100133.61;107652;1291;22315;-81
2022/10/24 03:58:55;;;;;;;20.40;18.50;;;;;;;12.94;75.74;100137.45;107830;1288;22206;-82
2022/10/24 04:01:51;;;;;;;19.40;17.20;;;;;;;12.90;75.73;100120.92;108624;1280;22277;-81
2022/10/24 04:04:48;;;;;;;;;;;;;;;;;;;;;
2022/10/24 04:08:02;;;;;;;;;;;;;;;;;;;;;
2022/10/24 04:10:50;;;;;;;;;;;;;;;;;;;;;
2022/10/24 04:13:40;;;;;;;18.40;16.30;;;;;;;12.84;75.91;100132.03;108729;1280;22074;-82
2022/10/24 04:16:33;;;;;;;;;;;;;;;;;;;;;
2022/10/24 04:19:35;;;;;;;19.20;16.30;;;;;;;12.91;75.95;100128.21;108628;1277;22870;-81
2022/10/24 04:22:21;;;;;;;;;;;;;;;;;;;;;
2022/10/24 04:25:09;;;;;;;;;;;;;;;;;;;;;
2022/10/24 04:27:48;;;;;;;19.50;16.60;;;;;;;12.94;75.69;100129.27;108312;1283;21964;-81
2022/10/24 04:30:19;;;;;;;19.20;16.50;;;;;;;12.97;75.77;100131.39;108605;1280;21944;-80
2022/10/24 04:32:49;;;;;;;18.30;16.40;;;;;;;13.01;75.69;100130.84;108584;1279;21936;-81
2022/10/24 04:35:25;;;;;;;20.40;15.80;;;;;;;13.01;75.59;100128.88;108611;1280;23719;-81
2022/10/24 04:38:11;;;;;;;18.10;14.80;;;;;;;13.03;75.51;100122.16;108495;1280;22106;-81
2022/10/24 04:41:11;;;;;;;16.70;15.00;;;;;;;13.01;75.35;100115.78;108704;1278;22332;-81
2022/10/24 04:43:44;;;;;;;18.20;15.80;;;;;;;12.99;75.31;100112.26;108604;1279;22031;-80
2022/10/24 04:46:27;;;;;;;17.60;15.90;;;;;;;12.97;75.35;100114.76;108735;1280;22704;-80
2022/10/24 04:49:15;;;;;;;17.50;15.40;;;;;;;12.95;75.26;100110.53;108568;1281;21968;-81
2022/10/24 04:52:02;;;;;;;17.10;15.30;;;;;;;12.90;75.29;100113.38;108522;1278;22017;-81
2022/10/24 04:54:45;;;;;;;18.90;16.90;;;;;;;12.88;75.30;100116.99;108681;1278;21937;-82
2022/10/24 04:57:36;;;;;;;19.70;17.70;;;;;;;12.85;75.26;100118.17;108742;1277;23077;-81
2022/10/24 05:00:47;;;;;;;;;;;;;;;;;;;;;
2022/10/24 05:03:37;;;;;;;17.50;15.80;;;;;;;12.84;75.50;100131.34;108728;1278;21946;-82
2022/10/24 05:06:24;;;;;;;17.50;15.40;;;;;;;12.85;75.32;100136.84;108542;1278;21947;-82
2022/10/24 05:09:26;;;;;;;17.10;15.50;;;;;;;12.86;75.25;100132.80;108803;1278;23046;-84
2022/10/24 05:12:47;;;;;;;16.30;13.90;;;;;;;12.84;75.35;100124.48;108698;1278;21977;-83
2022/10/24 05:16:05;;;;;;;;;;;;;;;;;;;;;
2022/10/24 05:18:46;;;;;;;17.20;15.10;;;;;;;12.81;75.11;100136.20;108764;1278;23138;-83
2022/10/24 05:21:33;;;;;;;20.40;18.40;;;;;;;12.82;75.24;100142.22;108790;1278;21941;-84
2022/10/24 05:24:18;;;;;;;21.50;19.50;;;;;;;12.84;75.10;100138.14;108660;1275;21916;-84
2022/10/24 05:27:00;;;;;;;24.50;21.60;;;;;;;12.84;74.99;100136.04;108897;1275;21934;-83
2022/10/24 05:29:53;;;;;;;39.30;35.70;;;;;;;12.84;74.83;100139.54;108978;1275;21934;-84
2022/10/24 05:33:28;;;;;;;;;;;;;;;;;;;;;
2022/10/24 05:36:39;;;;;;;64.60;59.10;;;;;;;12.75;74.79;100133.52;108917;1273;21939;-81
2022/10/24 05:39:37;;;;;;;;;;;;;;;;;;;;;
2022/10/24 05:42:40;;;;;;;37.90;34.60;;;;;;;12.63;74.87;100136.02;108847;1274;22027;-83
2022/10/24 05:45:21;;;;;;;32.20;28.80;;;;;;;12.61;74.90;100133.88;108866;1277;21932;-82
2022/10/24 05:48:12;;;;;;;36.50;33.00;;;;;;;12.63;75.03;100138.35;108682;1280;21963;-84
2022/10/24 05:50:55;;;;;;;42.80;38.80;;;;;;;12.61;75.08;100136.31;108486;1280;23148;-85
2022/10/24 05:53:28;;;;;;;38.40;34.70;;;;;;;12.61;75.00;100143.65;108439;1285;22902;-85
2022/10/24 05:56:05;;;;;;;47.00;36.90;;;;;;;12.63;75.05;100153.33;107940;1286;23686;-86
2022/10/24 05:58:51;;;;;;;45.50;41.10;;;;;;;12.64;75.16;100153.79;108243;1286;22482;-83
2022/10/24 06:01:35;;;;;;;44.50;40.30;;;;;;;12.68;75.29;100159.73;108146;1286;23610;-85
2022/10/24 06:04:14;;;;;;;44.10;39.50;;;;;;;12.69;75.18;100162.30;108283;1285;21968;-82
2022/10/24 06:07:12;;;;;;;46.20;41.10;;;;;;;12.70;75.24;100161.55;108238;1283;23682;-82
2022/10/24 06:09:59;;;;;;;;;;;;;;;;;;;;;
2022/10/24 06:12:47;;;;;;;41.90;37.50;;;;;;;12.65;74.97;100157.78;108553;1277;22566;-81
2022/10/24 06:15:34;;;;;;;38.30;34.90;;;;;;;12.60;75.00;100151.92;108639;1278;22326;-81
2022/10/24 06:18:31;;;;;;;38.70;34.80;;;;;;;12.57;75.26;100149.61;108644;1278;22020;-80
2022/10/24 06:21:08;;;;;;;37.00;33.40;;;;;;;12.58;75.31;100148.02;108280;1283;24264;-81
2022/10/24 06:23:50;;;;;;;42.20;38.20;;;;;;;12.61;75.28;100140.16;108406;1275;21952;-80
2022/10/24 06:26:24;;;;;;;32.70;29.40;;;;;;;12.61;75.09;100138.41;108348;1285;21947;-79
2022/10/24 06:28:59;;;;;;;31.40;28.30;;;;;;;12.58;75.04;100135.08;108576;1280;23273;-78
2022/10/24 06:31:37;;;;;;;33.70;30.70;;;;;;;12.52;75.15;100134.29;108331;1281;22730;-79
2022/10/24 06:34:27;;;;;;;38.80;35.40;;;;;;;12.51;75.31;100136.79;108320;1281;21975;-82
2022/10/24 06:37:03;;;;;;;46.00;41.70;;;;;;;12.51;75.31;100137.52;108450;1280;22298;-82
2022/10/24 06:40:01;;;;;;;;;;;;;;;;;;;;;
2022/10/24 06:42:50;;;;;;;34.30;30.80;;;;;;;12.62;75.55;100141.88;108807;1275;23055;-83
2022/10/24 06:45:27;;;;;;;35.60;24.60;;;;;;;12.69;75.57;100135.22;108811;1275;21919;-83
2022/10/24 06:48:22;;;;;;;23.40;20.60;;;;;;;12.75;75.51;100136.17;108755;1274;24372;-82
2022/10/24 06:51:18;;;;;;;24.50;21.20;;;;;;;12.78;75.28;100137.04;108781;1277;23048;-80
2022/10/24 06:53:54;;;;;;;24.50;22.00;;;;;;;12.80;75.25;100144.30;107995;1286;23715;-81
2022/10/24 06:56:45;;;;;;;;;;;;;;;;;;;;;
2022/10/24 06:59:31;;;;;;;;;;;;;;;;;;;;;
2022/10/24 07:02:24;;;;;;;30.00;24.60;;;;;;;12.83;75.29;100156.86;107624;1292;21960;-82
2022/10/24 07:05:04;;;;;;;30.20;25.40;;;;;;;12.90;75.27;100165.45;107153;1295;23601;-81
2022/10/24 07:07:42;;;;;;;30.60;27.20;;;;;;;12.96;75.22;100165.83;107067;1295;21999;-80
2022/10/24 07:10:22;;;;;;;31.00;27.80;;;;;;;13.05;75.19;100164.88;107314;1295;23713;-83
2022/10/24 07:13:29;;;;;;;34.30;29.00;;;;;;;13.10;75.19;100161.61;107644;1292;23823;-83
2022/10/24 07:16:26;;;;;;;35.90;27.70;;;;;;;13.18;75.11;100161.88;107943;1289;21947;-84
2022/10/24 07:19:09;;;;;;;29.70;26.40;;;;;;;13.25;74.89;100161.52;107946;1287;21946;-83
2022/10/24 07:21:54;;;;;;;29.80;25.90;;;;;;;13.31;74.73;100164.39;108089;1286;21986;-84
2022/10/24 07:24:25;;;;;;;27.30;24.60;;;;;;;13.39;74.59;100165.40;108383;1283;22244;-83
2022/10/24 07:27:13;;;;;;;;;;;;;;;;;;;;;
2022/10/24 07:29:50;;;;;;;24.90;22.80;;;;;;;13.47;74.13;100161.83;108523;1272;22086;-83
2022/10/24 07:32:40;;;;;;;26.40;23.90;;;;;;;13.50;73.96;100163.08;108827;1275;22323;-82
2022/10/24 07:35:42;;;;;;;23.50;21.00;;;;;;;13.55;74.08;100169.60;108833;1276;21982;-83
2022/10/24 07:38:15;;;;;;;24.80;22.40;;;;;;;13.62;73.91;100169.27;108774;1276;23074;-83
2022/10/24 07:41:03;;;;;;;24.10;21.60;;;;;;;13.67;73.75;100168.28;108777;1274;21990;-83
2022/10/24 07:47:24;;;;;;;30.30;24.30;;;;;;;13.71;73.36;100161.95;108540;1281;23092;-84
2022/10/24 07:50:14;;;;;;;22.80;20.50;;;;;;;13.76;73.33;100164.85;108388;1285;22357;-83
2022/10/24 07:53:16;;;;;;;21.80;19.40;;;;;;;13.80;73.30;100166.20;108506;1281;21942;-84
2022/10/24 07:56:17;;;;;;;;;;;;;;;;;;;;;
2022/10/24 07:59:17;;;;;;;20.30;17.80;;;;;;;13.94;73.10;100162.65;108626;1280;21954;-83
2022/10/24 08:02:31;;;;;;;;;;;;;;;;;;;;;
2022/10/24 08:05:18;;;;;;;18.90;16.50;;;;;;;14.12;72.95;100157.46;108539;1280;23709;-84
2022/10/24 08:07:59;;;;;;;17.60;15.90;;;;;;;14.19;72.72;100157.23;108416;1271;21970;-84
2022/10/24 08:11:07;;;;;;;17.20;15.70;;;;;;;14.26;72.53;100155.81;108425;1280;21937;-83
2022/10/24 08:13:52;;;;;;;17.80;16.10;;;;;;;14.34;72.39;100155.39;108527;1281;21965;-84
2022/10/24 08:16:33;;;;;;;18.80;16.90;;;;;;;14.43;72.31;100159.41;108470;1280;21939;-83
2022/10/24 08:19:13;;;;;;;21.50;16.10;;;;;;;14.50;72.24;100161.77;108439;1281;23580;-84
2022/10/24 08:21:49;;;;;;;18.90;16.10;;;;;;;14.58;71.89;100165.89;108322;1281;23801;-78
2022/10/24 08:24:23;;;;;;;21.50;15.80;;;;;;;14.68;71.67;100168.48;108312;1275;23764;-79
2022/10/24 08:26:55;;;;;;;18.10;15.70;;;;;;;14.78;71.61;100167.91;108772;1275;21956;-79
2022/10/24 08:29:26;;;;;;;19.90;16.40;;;;;;;14.86;71.25;100164.34;108620;1280;23075;-80
2022/10/24 08:31:59;;;;;;;18.50;14.60;;;;;;;14.91;71.00;100165.06;108512;1280;22879;-80
2022/10/24 08:34:37;;;;;;;17.10;14.30;;;;;;;14.98;70.92;100168.15;108607;1280;21935;-79
2022/10/24 08:37:06;;;;;;;14.30;12.70;;;;;;;15.06;70.82;100166.45;108502;1281;22019;-78
2022/10/24 08:39:37;;;;;;;14.80;13.10;;;;;;;15.15;70.77;100164.70;108467;1280;23637;-81
2022/10/24 08:42:17;;;;;;;20.40;14.90;;;;;;;15.26;70.53;100165.62;108246;1283;22350;-81
2022/10/24 08:44:59;;;;;;;20.00;13.30;;;;;;;15.34;70.32;100162.17;107764;1283;21924;-81
2022/10/24 08:48:07;;;;;;;16.00;12.70;;;;;;;15.46;70.33;100162.16;108226;1280;23594;-83
2022/10/24 08:50:42;;;;;;;15.60;12.60;;;;;;;15.57;70.25;100162.70;108284;1283;23070;-84
2022/10/24 08:53:33;;;;;;;19.50;11.80;;;;;;;15.70;69.91;100167.34;107881;1290;23738;-84
2022/10/24 08:56:12;;;;;;;21.70;10.50;;;;;;;15.77;69.43;100163.39;107802;1289;21956;-83
2022/10/24 08:58:45;;;;;;;13.20;8.60;;;;;;;15.82;69.03;100161.89;107778;1289;21959;-82
2022/10/24 09:01:31;;;;;;;9.50;8.00;;;;;;;15.86;68.55;100160.73;108306;1283;21934;-82
2022/10/24 09:04:08;;;;;;;11.00;7.90;;;;;;;15.90;68.32;100161.90;108158;1284;21960;-85
2022/10/24 09:06:43;;;;;;;10.20;7.40;;;;;;;15.97;68.10;100165.17;108133;1286;23012;-84
2022/10/24 09:09:28;;;;;;;12.90;8.30;;;;;;;16.05;68.04;100164.30;108358;1283;21952;-83
2022/10/24 09:12:27;;;;;;;7.90;7.00;;;;;;;16.14;67.96;100163.34;108645;1278;21925;-82
2022/10/24 09:15:15;;;;;;;13.60;7.90;;;;;;;16.23;67.62;100166.86;108710;1275;21929;-83
2022/10/24 09:17:58;;;;;;;;;;;;;;;;;;;;;
2022/10/24 09:20:43;;;;;;;11.80;9.20;;;;;;;16.39;67.37;100167.69;108767;1278;22922;-83
2022/10/24 09:23:45;;;;;;;15.40;9.40;;;;;;;16.47;66.97;100173.35;108754;1277;21995;-83
2022/10/24 09:26:37;;;;;;;14.80;9.10;;;;;;;16.53;66.82;100178.06;108764;1277;21951;-82
2022/10/24 09:29:11;;;;;;;11.40;7.80;;;;;;;16.60;66.64;100183.94;108688;1273;21968;-82
2022/10/24 09:31:48;;;;;;;12.10;8.00;;;;;;;16.66;66.41;100183.58;108685;1277;21961;-83
2022/10/24 09:35:28;;;;;;;10.10;5.80;;;;;;;16.71;66.37;100174.08;108702;1279;21942;-84
2022/10/24 09:38:21;;;;;;;10.40;7.00;;;;;;;16.77;66.03;100169.95;108388;1283;23652;-83
2022/10/24 09:41:01;;;;;;;12.80;8.00;;;;;;;16.84;65.91;100168.68;108108;1286;21993;-82
2022/10/24 09:43:45;;;;;;;10.50;6.70;;;;;;;16.93;65.91;100178.29;107850;1286;23587;-83
2022/10/24 09:49:40;;;;;;;8.60;7.10;;;;;;;17.08;65.50;100181.67;107997;1286;21957;-82
2022/10/24 09:52:26;;;;;;;10.70;8.10;;;;;;;17.11;65.51;100171.44;107419;1292;21906;-81
2022/10/24 09:55:24;;;;;;;8.60;6.90;;;;;;;17.29;65.67;100174.94;107223;1288;23083;-83
2022/10/24 09:58:02;;;;;;;9.20;7.20;;;;;;;17.47;65.31;100172.33;107398;1292;21964;-83
2022/10/24 10:00:42;;;;;;;15.80;7.30;;;;;;;17.62;65.07;100170.36;107606;1292;21984;-82
2022/10/24 10:03:25;;;;;;;10.70;6.50;;;;;;;17.78;64.81;100169.48;106831;1298;21956;-84
2022/10/24 10:06:22;;;;;;;11.50;9.90;;;;;;;18.00;64.74;100173.55;107088;1298;23739;-82
2022/10/24 10:09:15;;;;;;;9.90;6.60;;;;;;;18.21;64.27;100177.17;106749;1298;23048;-84
2022/10/24 10:11:57;;;;;;;15.00;9.50;;;;;;;18.44;63.65;100173.75;107526;1292;22024;-84
2022/10/24 10:14:40;;;;;;;13.70;6.60;;;;;;;18.54;63.18;100172.64;107074;1294;21969;-83
2022/10/24 10:17:25;;;;;;;11.30;5.90;;;;;;;18.62;62.77;100171.86;107075;1294;21957;-83
2022/10/24 10:20:23;;;;;;;9.30;6.50;;;;;;;18.83;62.63;100163.65;107667;1289;22247;-82
2022/10/24 10:22:57;;;;;;;17.70;6.90;;;;;;;18.92;61.61;100166.99;107876;1289;23672;-83
2022/10/24 10:25:31;;;;;;;9.00;6.30;;;;;;;18.97;61.21;100159.23;107769;1294;23070;-82
2022/10/24 10:28:02;;;;;;;12.90;5.90;;;;;;;19.15;61.41;100156.84;107924;1286;21968;-81
2022/10/24 10:30:35;;;;;;;10.80;5.50;;;;;;;19.41;60.63;100156.73;108134;1286;23812;-82
2022/10/24 10:33:35;;;;;;;8.80;5.00;;;;;;;19.76;61.09;100153.29;108201;1284;23752;-83
2022/10/24 10:37:15;;;;;;;6.30;4.60;;;;;;;20.19;59.67;100152.51;108343;1285;22068;-83
2022/10/24 10:40:26;;;;;;;12.10;4.80;;;;;;;20.57;59.04;100145.05;108469;1283;23705;-81
2022/10/24 10:43:17;;;;;;;10.20;5.70;;;;;;;20.93;58.21;100144.73;108827;1279;23594;-83
2022/10/24 10:46:30;;;;;;;12.10;4.80;;;;;;;21.29;57.18;100137.55;108684;1279;24397;-84
2022/10/24 10:49:08;;;;;;;8.20;4.80;;;;;;;21.66;56.53;100138.21;108761;1279;23066;-83
2022/10/24 10:51:57;;;;;;;7.40;4.10;;;;;;;22.07;55.61;100138.39;108488;1281;23051;-83
2022/10/24 10:54:39;;;;;;;6.40;4.80;;;;;;;22.21;53.71;100139.98;108557;1283;21943;-84
2022/10/24 10:57:17;;;;;;;16.60;5.00;;;;;;;22.24;53.55;100139.21;108550;1280;21953;-83
2022/10/24 11:00:59;;;;;;;8.40;5.60;;;;;;;22.19;53.25;100144.92;108547;1283;21955;-83
2022/10/24 11:04:06;;;;;;;10.60;5.50;;;;;;;21.97;52.97;100137.11;108200;1286;21917;-81
2022/10/24 11:07:13;;;;;;;9.20;6.20;;;;;;;21.82;53.14;100143.58;108002;1284;24407;-81
2022/10/24 11:09:49;;;;;;;13.70;7.60;;;;;;;21.69;53.31;100140.67;107658;1288;21964;-83
2022/10/24 11:12:42;;;;;;;14.90;6.10;;;;;;;21.56;53.36;100137.49;107344;1298;23060;-81
2022/10/24 11:15:33;;;;;;;8.60;5.30;;;;;;;21.35;53.59;100135.92;107130;1297;23120;-82
2022/10/24 11:18:35;;;;;;;9.70;5.80;;;;;;;21.24;53.87;100140.98;107225;1296;23785;-82
2022/10/24 11:21:13;;;;;;;9.60;5.40;;;;;;;21.07;54.16;100133.96;107304;1297;23065;-83
2022/10/24 11:24:00;;;;;;;8.60;4.70;;;;;;;20.88;54.47;100121.39;107402;1295;21947;-81
2022/10/24 11:26:41;;;;;;;11.00;4.40;;;;;;;20.77;54.57;100122.02;107394;1294;23787;-82
2022/10/24 11:29:16;;;;;;;;;;;;;;;20.70;54.97;100123.09;107560;1295;22012;-81
2022/10/24 11:31:56;;;;;;;8.30;4.70;;;;;;;20.55;55.39;100118.45;107790;1291;21950;-82
2022/10/24 11:34:32;;;;;;;8.60;4.50;;;;;;;20.52;55.56;100117.51;108050;1286;21953;-81
2022/10/24 11:37:19;;;;;;;13.00;5.20;;;;;;;20.49;55.54;100117.37;107721;1290;24391;-82
2022/10/24 11:40:13;;;;;;;18.40;7.90;;;;;;;20.48;55.78;100118.19;108148;1289;23722;-82
2022/10/24 11:43:00;;;;;;;11.90;5.50;;;;;;;20.45;55.87;100113.10;107964;1290;24372;-81
2022/10/24 11:45:44;;;;;;;13.70;5.10;;;;;;;20.41;55.89;100116.63;107901;1290;21966;-83
2022/10/24 11:48:27;;;;;;;8.10;4.70;;;;;;;20.37;55.90;100112.66;108271;1285;21953;-82
2022/10/24 11:51:19;;;;;;;14.70;5.30;;;;;;;20.33;55.89;100103.87;108267;1287;23685;-82
2022/10/24 11:54:13;;;;;;;10.80;4.20;;;;;;;20.27;55.95;100100.80;108269;1285;21956;-81
2022/10/24 11:57:05;;;;;;;15.50;12.30;;;;;;;20.27;56.22;100089.52;108346;1286;22064;-82
2022/10/24 11:59:34;;;;;;;12.20;7.10;;;;;;;20.29;56.34;100082.84;108200;1286;21942;-82
2022/10/24 12:03:02;;;;;;;11.90;4.80;;;;;;;20.33;56.34;100084.48;108209;1286;22023;-82
2022/10/24 12:05:57;;;;;;;10.00;4.20;;;;;;;20.31;56.17;100088.34;108315;1287;21951;-83
2022/10/24 12:08:51;;;;;;;8.60;4.70;;;;;;;20.28;56.08;100091.88;108245;1284;22341;-83
2022/10/24 12:12:18;;;;;;;10.00;5.20;;;;;;;20.25;56.06;100089.11;108368;1283;21967;-83
2022/10/24 12:15:04;;;;;;;7.70;4.10;;;;;;;20.21;56.08;100086.79;108615;1279;21946;-78
2022/10/24 12:18:11;;;;;;;11.30;5.00;;;;;;;20.23;56.35;100090.56;108504;1277;21936;-80
2022/10/24 12:20:41;;;;;;;14.60;5.60;;;;;;;20.23;56.48;100091.91;108950;1279;21965;-80
2022/10/24 12:23:26;;;;;;;10.90;6.00;;;;;;;20.28;56.58;100092.98;108496;1279;23724;-81
2022/10/24 12:26:13;;;;;;;13.90;6.40;;;;;;;20.29;56.64;100089.52;108751;1278;21946;-81
2022/10/24 12:28:57;;;;;;;10.40;5.60;;;;;;;20.32;56.72;100092.31;108848;1278;22060;-82
2022/10/24 12:31:35;;;;;;;12.30;5.70;;;;;;;20.32;56.70;100089.80;108671;1279;21972;-84
2022/10/24 12:34:15;;;;;;;9.60;4.70;;;;;;;20.30;56.73;100085.69;108776;1276;23617;-83
2022/10/24 12:37:18;;;;;;;13.50;5.10;;;;;;;20.31;56.73;100095.16;108934;1275;22894;-84
2022/10/24 12:39:50;;;;;;;8.40;4.20;;;;;;;20.29;56.73;100088.31;108944;1279;22528;-84
2022/10/24 12:42:35;;;;;;;12.50;4.30;;;;;;;20.27;56.73;100081.55;108946;1276;21982;-83
2022/10/24 12:45:04;;;;;;;9.90;4.30;;;;;;;20.29;56.96;100071.17;108877;1279;24358;-82
2022/10/24 12:47:40;;;;;;;9.60;5.10;;;;;;;20.36;57.01;100070.09;108894;1275;21947;-81
2022/10/24 12:50:24;;;;;;;10.50;4.70;;;;;;;20.38;57.04;100067.75;108786;1275;21970;-81
2022/10/24 12:53:37;;;;;;;27.40;24.20;;;;;;;20.41;57.00;100064.17;108859;1275;21947;-81
2022/10/24 12:56:13;;;;;;;16.10;5.70;;;;;;;20.43;57.01;100058.69;108509;1280;21951;-80
2022/10/24 12:59:00;;;;;;;9.90;4.60;;;;;;;20.45;56.80;100058.83;108471;1283;21954;-82
2022/10/24 13:01:40;;;;;;;10.80;4.60;;;;;;;20.44;56.60;100056.95;107034;1283;1726027;-81
2022/10/24 13:05:07;;;;;;;26.00;5.30;;;;;;;20.43;56.40;100052.82;108570;1282;21952;-80
2022/10/24 13:08:05;;;;;;;13.90;4.80;;;;;;;20.40;56.32;100048.70;108556;1282;21930;-80
2022/10/24 13:11:19;;;;;;;17.70;5.20;;;;;;;20.38;56.34;100052.20;108658;1280;22012;-83
2022/10/24 13:14:37;;;;;;;15.90;4.50;;;;;;;20.36;56.34;100050.09;108508;1282;21979;-79
2022/10/24 13:17:32;;;;;;;11.30;4.60;;;;;;;20.39;56.48;100047.73;108204;1285;23060;-79
2022/10/24 13:20:22;;;;;;;9.60;4.40;;;;;;;20.44;56.42;100041.77;107844;1286;21969;-79
2022/10/24 13:23:22;;;;;;;14.80;5.30;;;;;;;20.48;56.23;100040.06;107738;1288;22036;-79
2022/10/24 13:25:57;;;;;;;12.00;6.10;;;;;;;20.55;56.13;100040.00;107972;1288;22023;-80
2022/10/24 13:28:29;;;;;;;11.20;5.20;;;;;;;20.57;55.87;100038.56;108102;1285;22819;-79
2022/10/24 13:30:59;;;;;;;10.80;5.70;;;;;;;20.59;55.85;100043.38;108187;1286;21939;-79
2022/10/24 13:33:44;;;;;;;11.70;5.80;;;;;;;20.63;55.84;100048.02;108557;1280;21941;-79
2022/10/24 13:36:25;;;;;;;14.00;6.80;;;;;;;20.66;55.87;100052.02;108592;1280;23682;-80
2022/10/24 13:39:13;;;;;;;10.80;5.90;;;;;;;20.67;55.83;100055.23;108428;1283;21951;-81
2022/10/24 13:42:24;;;;;;;13.50;6.70;;;;;;;20.70;55.68;100056.48;108552;1281;23586;-83